createdAt,value
2018-04-11T00:00:27.896Z,7.03
2018-04-11T00:02:54.018Z,7.50
2018-04-11T00:05:20.130Z,8.03
2018-04-11T00:07:46.954Z,7.37
2018-04-11T00:10:13.034Z,7.47
2018-04-11T00:12:39.869Z,7.20
2018-04-11T00:15:05.965Z,6.67
2018-04-11T00:17:32.006Z,7.53
2018-04-11T00:19:58.444Z,10.03
2018-04-11T00:22:24.455Z,9.57
2018-04-11T00:24:50.465Z,10.60
2018-04-11T00:27:16.479Z,11.30
2018-04-11T00:29:42.610Z,11.57
2018-04-11T00:32:09.378Z,10.47
2018-04-11T00:34:35.343Z,9.50
2018-04-11T00:37:01.448Z,10.83
2018-04-11T00:39:27.529Z,10.20
2018-04-11T00:41:55.110Z,11.10
2018-04-11T00:44:21.149Z,10.20
2018-04-11T00:46:47.240Z,12.27
2018-04-11T00:49:15.003Z,11.13
2018-04-11T00:51:41.044Z,13.10
2018-04-11T00:54:07.048Z,11.90
2018-04-11T00:56:33.208Z,12.13
2018-04-11T00:58:59.261Z,13.57
2018-04-11T01:01:25.373Z,13.00
2018-04-11T01:03:51.483Z,13.23
2018-04-11T01:06:17.577Z,12.77
2018-04-11T01:08:43.662Z,13.37
2018-04-11T01:11:10.472Z,12.90
2018-04-11T01:13:36.576Z,12.33
2018-04-11T01:16:02.621Z,11.67
2018-04-11T01:18:28.591Z,11.17
2018-04-11T01:20:54.682Z,12.37
2018-04-11T01:23:20.694Z,11.27
2018-04-11T01:25:46.764Z,10.30
2018-04-11T01:28:12.803Z,11.20
2018-04-11T01:30:39.710Z,10.57
2018-04-11T01:33:06.413Z,9.10
2018-04-11T01:35:32.522Z,9.03
2018-04-11T01:37:58.599Z,9.27
2018-04-11T01:40:24.841Z,9.67
2018-04-11T01:42:51.479Z,11.57
2018-04-11T01:45:17.557Z,10.50
2018-04-11T01:47:43.641Z,11.80
2018-04-11T01:50:09.719Z,11.57
2018-04-11T01:52:35.955Z,14.10
2018-04-11T01:55:02.062Z,13.40
2018-04-11T01:57:28.158Z,16.23
2018-04-11T01:59:54.176Z,15.47
2018-04-11T02:02:20.987Z,14.57
2018-04-11T02:04:47.076Z,15.43
2018-04-11T02:07:13.113Z,15.93
2018-04-11T02:09:39.191Z,16.13
2018-04-11T02:12:05.201Z,15.60
2018-04-11T02:14:31.375Z,15.30
2018-04-11T02:16:59.865Z,15.10
2018-04-11T02:19:25.956Z,15.50
2018-04-11T02:21:52.059Z,15.03
2018-04-11T02:24:18.067Z,15.43
2018-04-11T02:26:44.176Z,17.00
2018-04-11T02:29:10.941Z,17.63
2018-04-11T02:31:36.970Z,15.67
2018-04-11T02:34:04.745Z,19.80
2018-04-11T02:36:30.778Z,18.53
2018-04-11T02:38:56.892Z,19.20
2018-04-11T02:41:23.629Z,19.10
2018-04-11T02:43:50.473Z,20.27
2018-04-11T02:46:17.349Z,20.17
2018-04-11T02:48:44.161Z,21.70
2018-04-11T02:51:10.269Z,20.07
2018-04-11T02:53:36.347Z,19.23
2018-04-11T02:56:02.474Z,20.03
2018-04-11T02:58:29.385Z,19.93
2018-04-11T03:00:55.442Z,20.60
2018-04-11T03:03:21.489Z,21.13
2018-04-11T03:05:47.547Z,21.37
2018-04-11T03:08:13.675Z,20.27
2018-04-11T03:10:39.788Z,20.63
2018-04-11T03:13:05.958Z,19.20
2018-04-11T03:15:32.016Z,18.90
2018-04-11T03:17:58.089Z,21.43
2018-04-11T03:20:24.150Z,20.00
2018-04-11T03:22:50.141Z,21.53
2018-04-11T03:25:16.247Z,20.57
2018-04-11T03:27:42.320Z,20.67
2018-04-11T03:30:08.342Z,21.90
2018-04-11T03:32:34.387Z,20.43
2018-04-11T03:35:00.523Z,19.20
2018-04-11T03:37:26.613Z,21.67
2018-04-11T03:39:53.894Z,22.07
2018-04-11T03:42:20.012Z,22.17
2018-04-11T03:44:46.169Z,21.23
2018-04-11T03:47:12.275Z,20.73
2018-04-11T03:49:38.366Z,24.23
2018-04-11T03:52:04.423Z,22.60
2018-04-11T03:54:31.212Z,20.83
2018-04-11T03:56:57.290Z,20.00
2018-04-11T03:59:23.372Z,16.50
2018-04-11T04:01:49.381Z,14.07
2018-04-11T04:04:15.453Z,12.90
2018-04-11T04:06:41.564Z,15.13
2018-04-11T04:09:07.828Z,17.57
2018-04-11T04:11:33.997Z,15.60
2018-04-11T04:14:12.739Z,17.83
2018-04-11T04:16:51.177Z,18.77
2018-04-11T04:19:29.640Z,21.90
2018-04-11T04:21:55.671Z,22.23
2018-04-11T04:24:21.780Z,19.97
2018-04-11T04:26:48.562Z,23.40
2018-04-11T04:29:14.650Z,41.13
2018-04-11T04:31:41.928Z,27.37
2018-04-11T04:34:07.986Z,23.77
2018-04-11T04:36:34.467Z,23.43
2018-04-11T04:39:00.666Z,27.27
2018-04-11T04:41:26.712Z,29.73
2018-04-11T04:43:54.261Z,29.57
2018-04-11T04:46:20.501Z,24.60
2018-04-11T04:48:46.611Z,24.17
2018-04-11T04:51:14.559Z,22.20
2018-04-11T04:53:40.714Z,23.40
2018-04-11T04:56:07.059Z,23.07
2018-04-11T04:58:33.188Z,24.30
2018-04-11T05:00:59.304Z,22.70
2018-04-11T05:03:25.380Z,23.23
2018-04-11T05:05:51.471Z,22.63
2018-04-11T05:08:17.673Z,24.70
2018-04-11T05:10:43.940Z,21.93
2018-04-11T05:13:10.789Z,23.50
2018-04-11T05:15:36.975Z,22.70
2018-04-11T05:18:03.057Z,22.33
2018-04-11T05:20:29.378Z,22.23
2018-04-11T05:22:55.661Z,22.47
2018-04-11T05:25:24.131Z,22.33
2018-04-11T05:27:50.196Z,23.70
2018-04-11T05:30:16.282Z,24.57
2018-04-11T05:32:42.421Z,24.00
2018-04-11T05:35:08.462Z,23.00
2018-04-11T05:37:34.610Z,23.90
2018-04-11T05:40:00.891Z,23.60
2018-04-11T05:42:27.723Z,25.50
2018-04-11T05:44:55.088Z,24.67
2018-04-11T05:47:21.192Z,24.17
2018-04-11T05:49:47.368Z,22.53
2018-04-11T05:52:14.112Z,26.00
2018-04-11T05:54:40.540Z,22.90
2018-04-11T05:57:06.625Z,22.80
2018-04-11T05:59:33.527Z,23.60
2018-04-11T06:02:01.432Z,23.43
2018-04-11T06:04:28.551Z,24.57
2018-04-11T06:06:56.465Z,22.83
2018-04-11T06:09:22.695Z,23.33
2018-04-11T06:11:48.859Z,21.70
2018-04-11T06:14:14.927Z,22.17
2018-04-11T06:16:41.225Z,22.93
2018-04-11T06:19:07.520Z,24.20
2018-04-11T06:21:34.066Z,22.47
2018-04-11T06:24:00.265Z,22.93
2018-04-11T06:26:28.182Z,23.77
2018-04-11T06:28:54.398Z,23.30
2018-04-11T06:31:21.439Z,23.27
2018-04-11T06:33:47.547Z,24.53
2018-04-11T06:36:14.062Z,22.23
2018-04-11T06:38:40.385Z,22.00
2018-04-11T06:41:07.132Z,22.10
2018-04-11T06:43:33.367Z,21.87
2018-04-11T06:45:59.520Z,20.80
2018-04-11T06:48:26.515Z,22.40
2018-04-11T06:50:52.702Z,22.10
2018-04-11T06:53:18.944Z,21.30
2018-04-11T06:55:45.661Z,21.50
2018-04-11T06:58:12.021Z,21.90
2018-04-11T07:00:39.237Z,20.37
2018-04-11T07:03:05.581Z,20.87
2018-04-11T07:05:32.111Z,20.33
2018-04-11T07:07:58.421Z,22.53
2018-04-11T07:10:24.708Z,21.37
2018-04-11T07:12:51.943Z,19.93
2018-04-11T07:15:18.278Z,20.10
2018-04-11T07:20:22.623Z,21.20
2018-04-11T07:22:49.953Z,19.80
2018-04-11T07:25:16.203Z,19.03
2018-04-11T07:27:44.285Z,20.57
2018-04-11T07:30:10.384Z,19.13
2018-04-11T07:32:37.322Z,20.07
2018-04-11T07:35:04.855Z,18.40
2018-04-11T07:37:30.960Z,19.30
2018-04-11T07:39:57.223Z,17.73
2018-04-11T07:42:24.243Z,18.07
2018-04-11T07:44:50.532Z,17.73
2018-04-11T07:47:19.762Z,18.20
2018-04-11T07:49:45.956Z,16.70
2018-04-11T07:52:12.082Z,17.20
2018-04-11T07:54:38.261Z,18.40
2018-04-11T07:57:04.490Z,17.10
2018-04-11T07:59:30.750Z,16.83
2018-04-11T08:02:49.161Z,16.57
2018-04-11T08:05:15.396Z,17.20
2018-04-11T08:07:41.480Z,15.90
2018-04-11T08:10:08.590Z,16.27
2018-04-11T08:12:34.722Z,19.37
2018-04-11T08:15:01.070Z,16.70
2018-04-11T08:17:27.246Z,16.67
2018-04-11T08:19:54.300Z,16.80
2018-04-11T08:22:21.902Z,18.00
2018-04-11T08:24:48.128Z,17.50
2018-04-11T08:27:14.442Z,16.80
2018-04-11T08:29:42.476Z,17.80
2018-04-11T08:32:08.611Z,17.00
2018-04-11T08:34:34.727Z,16.37
2018-04-11T08:37:00.900Z,16.70
2018-04-11T08:39:27.011Z,17.30
2018-04-11T08:41:53.344Z,18.10
2018-04-11T08:44:19.778Z,17.23
2018-04-11T08:46:45.898Z,17.80
2018-04-11T08:49:12.095Z,15.50
2018-04-11T08:51:49.917Z,15.73
2018-04-11T08:54:16.108Z,17.20
2018-04-11T08:56:43.108Z,19.50
2018-04-11T08:59:09.188Z,17.57
2018-04-11T09:01:35.469Z,17.03
2018-04-11T09:04:01.590Z,16.13
2018-04-11T09:06:28.948Z,16.90
2018-04-11T09:08:55.123Z,16.90
2018-04-11T09:11:21.588Z,16.77
2018-04-11T09:13:47.574Z,16.13
2018-04-11T09:16:13.845Z,16.30
2018-04-11T09:18:39.926Z,14.27
2018-04-11T09:21:07.240Z,15.33
2018-04-11T09:23:33.516Z,17.00
2018-04-11T09:25:59.654Z,16.00
2018-04-11T09:28:26.765Z,19.83
2018-04-11T09:30:53.123Z,16.90
2018-04-11T09:33:19.442Z,16.20
2018-04-11T09:35:45.694Z,15.77
2018-04-11T09:38:12.811Z,15.53
2018-04-11T09:40:40.025Z,16.13
2018-04-11T09:43:06.114Z,15.83
2018-04-11T09:45:32.345Z,15.50
2018-04-11T09:48:00.153Z,16.53
2018-04-11T09:50:26.299Z,16.07
2018-04-11T09:52:52.406Z,16.50
2018-04-11T09:55:18.493Z,16.67
2018-04-11T09:57:46.121Z,15.93
2018-04-11T10:00:12.275Z,15.07
2018-04-11T10:02:38.435Z,15.47
2018-04-11T10:05:06.543Z,14.27
2018-04-11T10:07:33.680Z,14.93
2018-04-11T10:09:59.838Z,15.80
2018-04-11T10:12:26.030Z,15.87
2018-04-11T10:14:52.229Z,13.83
2018-04-11T10:17:18.352Z,15.33
2018-04-11T10:19:44.464Z,14.97
2018-04-11T10:22:11.296Z,15.60
2018-04-11T10:24:37.443Z,17.73
2018-04-11T10:27:04.250Z,14.40
2018-04-11T10:29:30.417Z,14.23
2018-04-11T10:31:57.374Z,11.90
2018-04-11T10:34:24.345Z,11.30
2018-04-11T10:36:50.443Z,12.73
2018-04-11T10:39:17.261Z,11.00
2018-04-11T10:41:44.530Z,12.60
2018-04-11T10:44:11.373Z,12.17
2018-04-11T10:46:38.288Z,11.37
2018-04-11T10:49:04.359Z,11.37
2018-04-11T10:51:30.453Z,11.93
2018-04-11T10:53:57.456Z,12.10
2018-04-11T10:56:23.590Z,11.23
2018-04-11T10:58:50.427Z,11.33
2018-04-11T11:01:17.255Z,13.37
2018-04-11T11:03:44.325Z,11.10
2018-04-11T11:06:10.492Z,11.30
2018-04-11T11:08:36.709Z,12.40
2018-04-11T11:11:02.883Z,11.50
2018-04-11T11:13:29.226Z,10.60
2018-04-11T11:15:55.347Z,11.27
2018-04-11T11:18:21.524Z,11.73
2018-04-11T11:20:55.851Z,9.00
2018-04-11T11:23:22.908Z,9.27
2018-04-11T11:25:49.166Z,9.50
2018-04-11T11:28:15.507Z,9.93
2018-04-11T11:30:43.259Z,8.70
2018-04-11T11:33:10.408Z,8.20
2018-04-11T11:35:36.494Z,6.90
2018-04-11T11:38:03.329Z,6.43
2018-04-11T11:40:29.493Z,10.00
2018-04-11T11:42:55.687Z,8.70
2018-04-11T11:45:21.962Z,9.07
2018-04-11T11:47:48.842Z,8.37
2018-04-11T11:50:15.038Z,7.77
2018-04-11T11:52:41.097Z,7.70
2018-04-11T11:55:07.291Z,8.37
2018-04-11T11:57:33.551Z,7.70
2018-04-11T11:59:59.641Z,7.13
2018-04-11T12:02:25.798Z,6.00
2018-04-11T12:04:52.745Z,8.70
2018-04-11T12:07:19.047Z,9.93
2018-04-11T12:09:45.237Z,8.50
2018-04-11T12:12:11.469Z,9.13
2018-04-11T12:14:37.809Z,10.30
2018-04-11T12:17:04.644Z,9.13
2018-04-11T12:19:30.721Z,9.33
2018-04-11T12:21:57.917Z,10.87
2018-04-11T12:24:24.137Z,10.23
2018-04-11T12:26:50.269Z,11.27
2018-04-11T12:29:16.389Z,11.40
2018-04-11T12:31:42.835Z,10.03
2018-04-11T12:34:08.945Z,10.50
2018-04-11T12:36:51.637Z,12.27
2018-04-11T12:39:17.888Z,11.33
2018-04-11T12:41:44.438Z,11.17
2018-04-11T12:44:10.620Z,10.60
2018-04-11T12:46:37.802Z,10.80
2018-04-11T12:49:03.927Z,10.93
2018-04-11T12:51:32.325Z,9.67
2018-04-11T12:53:58.501Z,10.30
2018-04-11T12:56:24.753Z,9.20
2018-04-11T12:58:51.131Z,8.37
2018-04-11T13:01:17.401Z,8.30
2018-04-11T13:03:43.550Z,9.70
2018-04-11T13:06:09.770Z,7.97
2018-04-11T13:08:35.965Z,8.90
2018-04-11T13:11:02.177Z,8.03
2018-04-11T13:13:28.673Z,8.43
2018-04-11T13:15:54.880Z,9.40
2018-04-11T13:18:21.104Z,8.47
2018-04-11T13:20:47.728Z,9.10
2018-04-11T13:23:33.784Z,8.57
2018-04-11T13:25:59.940Z,9.40
2018-04-11T13:28:27.722Z,9.43
2018-04-11T13:30:55.217Z,10.07
2018-04-11T13:33:21.359Z,10.03
2018-04-11T13:35:48.096Z,10.60
2018-04-11T13:38:14.827Z,8.93
2018-04-11T13:40:40.957Z,8.37
2018-04-11T13:43:07.242Z,9.00
2018-04-11T13:45:33.912Z,11.27
2018-04-11T13:48:00.836Z,12.03
2018-04-11T13:50:27.145Z,12.30
2018-04-11T13:52:53.589Z,13.93
2018-04-11T13:55:19.851Z,12.63
2018-04-11T13:57:46.352Z,12.27
2018-04-11T14:00:12.577Z,12.67
2018-04-11T14:02:38.762Z,13.13
2018-04-11T14:05:05.783Z,11.73
2018-04-11T14:07:31.967Z,11.30
2018-04-11T14:09:58.157Z,11.73
2018-04-11T14:12:24.584Z,11.33
2018-04-11T14:14:50.669Z,11.83
2018-04-11T14:17:18.159Z,11.93
2018-04-11T14:19:44.311Z,12.33
2018-04-11T14:22:11.201Z,11.47
2018-04-11T14:24:38.327Z,11.33
2018-04-11T14:27:04.756Z,11.10
2018-04-11T14:29:30.825Z,10.40
2018-04-11T14:31:57.783Z,10.90
2018-04-11T14:34:23.859Z,10.97
2018-04-11T14:36:50.125Z,12.03
2018-04-11T14:39:16.319Z,11.23
2018-04-11T14:41:42.325Z,10.83
2018-04-11T14:44:09.218Z,10.93
2018-04-11T14:46:35.373Z,10.37
2018-04-11T14:49:01.630Z,10.20
2018-04-11T14:51:28.688Z,10.63
2018-04-11T14:53:55.919Z,10.10
2018-04-11T14:56:23.682Z,9.70
2018-04-11T14:58:51.431Z,9.37
2018-04-11T15:01:19.356Z,10.13
2018-04-11T15:03:45.585Z,9.93
2018-04-11T15:06:12.194Z,9.63
2018-04-11T15:08:38.974Z,10.10
2018-04-11T15:11:05.982Z,8.87
2018-04-11T15:13:34.009Z,9.67
2018-04-11T15:16:00.938Z,9.77
2018-04-11T15:18:27.110Z,9.77
2018-04-11T15:20:53.290Z,9.60
2018-04-11T15:23:20.862Z,10.10
2018-04-11T15:25:47.868Z,8.87
2018-04-11T15:28:14.112Z,8.80
2018-04-11T15:30:42.386Z,8.30
2018-04-11T15:33:09.238Z,9.40
2018-04-11T15:35:35.428Z,8.67
2018-04-11T15:38:01.527Z,9.67
2018-04-11T15:40:27.696Z,8.00
2018-04-11T15:42:53.943Z,7.67
2018-04-11T15:45:20.516Z,8.00
2018-04-11T15:47:47.505Z,8.03
2018-04-11T15:50:13.808Z,7.20
2018-04-11T15:52:39.887Z,7.47
2018-04-11T15:55:06.256Z,7.70
2018-04-11T15:57:32.412Z,7.37
2018-04-11T15:59:58.553Z,7.07
2018-04-11T16:02:24.863Z,7.73
2018-04-11T16:04:51.006Z,7.77
2018-04-11T16:07:17.391Z,6.53
2018-04-11T16:09:44.307Z,15.00
2018-04-11T16:12:10.497Z,9.07
2018-04-11T16:14:36.686Z,13.17
2018-04-11T16:17:03.019Z,8.63
2018-04-11T16:19:29.656Z,11.80
2018-04-11T16:21:56.031Z,7.17
2018-04-11T16:24:23.309Z,7.70
2018-04-11T16:26:49.528Z,7.70
2018-04-11T16:29:19.755Z,6.60
2018-04-11T16:31:46.225Z,6.67
2018-04-11T16:34:12.479Z,5.73
2018-04-11T16:36:39.536Z,5.90
2018-04-11T16:39:09.202Z,6.03
2018-04-11T16:41:35.636Z,6.23
2018-04-11T16:44:02.226Z,6.93
2018-04-11T16:46:28.922Z,6.93
2018-04-11T16:48:57.127Z,6.53
2018-04-11T16:51:23.231Z,6.10
2018-04-11T16:53:50.081Z,7.27
2018-04-11T16:56:16.321Z,8.13
2018-04-11T16:58:42.525Z,7.10
2018-04-11T17:01:08.813Z,20.00
2018-04-11T17:03:35.868Z,11.23
2018-04-11T17:06:02.721Z,11.07
2018-04-11T17:08:28.896Z,6.80
2018-04-11T17:10:55.802Z,7.40
2018-04-11T17:13:21.995Z,8.67
2018-04-11T17:15:48.184Z,8.70
2018-04-11T17:18:15.409Z,8.40
2018-04-11T17:20:54.245Z,7.97
2018-04-11T17:23:32.637Z,7.67
2018-04-11T17:26:11.680Z,7.50
2018-04-11T17:28:51.461Z,7.50
2018-04-11T17:31:23.702Z,8.13
2018-04-11T17:33:49.949Z,8.80
2018-04-11T17:36:16.206Z,8.57
2018-04-11T17:38:42.504Z,7.53
2018-04-11T17:41:08.768Z,7.70
2018-04-11T17:43:34.985Z,7.43
2018-04-11T17:46:01.087Z,8.07
2018-04-11T17:48:27.159Z,9.10
2018-04-11T17:50:55.172Z,8.30
2018-04-11T17:53:22.128Z,8.10
2018-04-11T17:55:48.234Z,7.23
2018-04-11T17:58:17.549Z,7.37
2018-04-11T18:00:43.686Z,8.33
2018-04-11T18:03:11.166Z,6.60
2018-04-11T18:05:37.249Z,6.90
2018-04-11T18:08:04.050Z,6.30
2018-04-11T18:10:30.198Z,5.87
2018-04-11T18:12:56.458Z,6.17
2018-04-11T18:15:23.177Z,6.03
2018-04-11T18:17:49.378Z,6.30
2018-04-11T18:20:16.281Z,5.90
2018-04-11T18:22:42.517Z,5.27
2018-04-11T18:25:09.598Z,6.17
2018-04-11T18:27:36.594Z,6.00
2018-04-11T18:30:02.945Z,5.70
2018-04-11T18:32:30.675Z,5.17
2018-04-11T18:34:56.946Z,7.30
2018-04-11T18:37:24.954Z,6.93
2018-04-11T18:39:51.031Z,5.93
2018-04-11T18:42:17.242Z,6.87
2018-04-11T18:44:43.666Z,10.20
2018-04-11T18:47:09.803Z,8.27
2018-04-11T18:49:36.548Z,7.30
2018-04-11T18:52:03.451Z,8.43
2018-04-11T18:54:30.553Z,6.43
2018-04-11T18:56:58.359Z,6.50
2018-04-11T18:59:29.366Z,6.97
2018-04-11T19:02:04.506Z,6.33
2018-04-11T19:04:30.880Z,5.70
2018-04-11T19:06:57.120Z,5.57
2018-04-11T19:09:24.212Z,5.10
2018-04-11T19:11:51.889Z,5.37
2018-04-11T19:14:18.838Z,5.53
2018-04-11T19:16:44.902Z,5.93
2018-04-11T19:19:11.107Z,5.53
2018-04-11T19:21:38.073Z,6.17
2018-04-11T19:24:04.185Z,6.83
2018-04-11T19:26:30.440Z,6.57
2018-04-11T19:28:56.681Z,6.60
2018-04-11T19:31:23.068Z,6.40
2018-04-11T19:33:49.385Z,5.20
2018-04-11T19:36:17.096Z,5.80
2018-04-11T19:38:43.572Z,5.30
2018-04-11T19:41:09.725Z,7.07
2018-04-11T19:43:36.492Z,5.60
2018-04-11T19:46:03.385Z,4.90
2018-04-11T19:48:29.631Z,4.70
2018-04-11T19:50:55.952Z,4.93
2018-04-11T19:53:22.710Z,5.60
2018-04-11T19:55:49.070Z,4.80
2018-04-11T19:58:17.106Z,4.83
2018-04-11T20:00:43.437Z,5.87
2018-04-11T20:03:11.226Z,5.27
2018-04-11T20:05:37.290Z,5.03
2018-04-11T20:08:03.480Z,4.30
2018-04-11T20:10:30.466Z,5.40
2018-04-11T20:12:58.977Z,4.93
2018-04-11T20:15:29.160Z,4.73
2018-04-11T20:17:57.817Z,5.67
2018-04-11T20:20:26.464Z,5.17
2018-04-11T20:22:52.841Z,4.77
2018-04-11T20:25:18.964Z,5.77
2018-04-11T20:27:45.018Z,6.17
2018-04-11T20:30:11.811Z,5.33
2018-04-11T20:32:37.933Z,5.87
2018-04-11T20:35:04.145Z,5.10
2018-04-11T20:37:30.276Z,4.87
2018-04-11T20:39:57.502Z,5.37
2018-04-11T20:42:24.463Z,5.70
2018-04-11T20:44:50.587Z,6.07
2018-04-11T20:47:16.708Z,5.43
2018-04-11T20:49:44.418Z,5.40
2018-04-11T20:52:10.586Z,5.70
2018-04-11T20:54:36.794Z,6.57
2018-04-11T20:57:03.006Z,5.43
2018-04-11T20:59:29.661Z,5.33
2018-04-11T21:02:17.337Z,6.10
2018-04-11T21:04:44.247Z,6.37
2018-04-11T21:07:10.469Z,5.10
2018-04-11T21:09:37.792Z,5.70
2018-04-11T21:12:06.686Z,5.83
2018-04-11T21:14:33.581Z,6.03
2018-04-11T21:16:59.749Z,6.30
2018-04-11T21:19:26.238Z,5.57
2018-04-11T21:21:52.344Z,5.20
2018-04-11T21:24:19.275Z,6.73
2018-04-11T21:26:45.427Z,7.07
2018-04-11T21:29:12.386Z,5.90
2018-04-11T21:31:39.325Z,6.80
2018-04-11T21:34:06.127Z,6.40
2018-04-11T21:36:32.876Z,7.20
2018-04-11T21:38:59.021Z,5.53
2018-04-11T21:41:25.789Z,5.77
2018-04-11T21:43:53.754Z,5.90
2018-04-11T21:46:19.863Z,5.80
2018-04-11T21:48:47.169Z,5.30
2018-04-11T21:51:13.340Z,6.90
2018-04-11T21:53:39.567Z,6.27
2018-04-11T21:56:05.677Z,5.53
2018-04-11T21:58:31.987Z,6.17
2018-04-11T22:00:58.257Z,6.43
2018-04-11T22:03:25.253Z,6.40
2018-04-11T22:05:51.441Z,5.97
2018-04-11T22:08:17.795Z,6.70
2018-04-11T22:10:44.007Z,6.87
2018-04-11T22:13:10.549Z,6.93
2018-04-11T22:15:36.782Z,6.40
2018-04-11T22:18:03.739Z,6.60
2018-04-11T22:20:30.014Z,7.00
2018-04-11T22:22:56.492Z,7.40
2018-04-11T22:25:23.140Z,6.70
2018-04-11T22:27:49.740Z,7.73
2018-04-11T22:30:15.884Z,7.37
2018-04-11T22:32:42.837Z,7.40
2018-04-11T22:35:09.499Z,6.67
2018-04-11T22:37:36.331Z,8.50
2018-04-11T22:40:03.139Z,7.53
2018-04-11T22:42:29.419Z,7.53
2018-04-11T22:44:56.246Z,7.40
2018-04-11T22:47:25.015Z,7.47
2018-04-11T22:49:51.119Z,7.40
2018-04-11T22:52:17.240Z,7.67
2018-04-11T22:54:43.478Z,7.63
2018-04-11T22:57:09.558Z,7.37
2018-04-11T22:59:36.202Z,9.00
2018-04-11T23:02:02.574Z,8.10
2018-04-11T23:04:29.420Z,9.00
2018-04-11T23:06:56.268Z,8.50
2018-04-11T23:09:23.222Z,9.77
2018-04-11T23:11:49.294Z,8.00
2018-04-11T23:14:15.513Z,9.03
2018-04-11T23:16:41.665Z,10.50
2018-04-11T23:19:07.820Z,9.50
2018-04-11T23:21:34.171Z,8.93
2018-04-11T23:24:00.295Z,9.37
2018-04-11T23:26:27.336Z,9.80
2018-04-11T23:28:53.547Z,10.50
2018-04-11T23:31:19.782Z,10.00
2018-04-11T23:33:46.132Z,10.73
2018-04-11T23:36:12.450Z,9.53
2018-04-11T23:38:38.999Z,11.50
2018-04-11T23:41:05.085Z,10.47
2018-04-11T23:43:34.856Z,10.10
2018-04-11T23:46:02.383Z,11.63
2018-04-11T23:48:28.661Z,10.80
2018-04-11T23:50:57.885Z,11.83
2018-04-11T23:53:24.049Z,10.97
2018-04-11T23:55:51.085Z,11.00
2018-04-11T23:58:18.046Z,11.73
